createdAt,value
2019-05-07T00:01:13.774Z,1.30
2019-05-07T00:03:43.560Z,1.43
2019-05-07T00:06:13.309Z,1.60
2019-05-07T00:08:45.043Z,3.23
2019-05-07T00:11:14.543Z,2.30
2019-05-07T00:13:44.579Z,2.70
2019-05-07T00:16:14.490Z,2.40
2019-05-07T00:18:44.287Z,1.30
2019-05-07T00:21:14.053Z,1.23
2019-05-07T00:23:43.866Z,1.43
2019-05-07T00:26:13.727Z,5.23
2019-05-07T00:28:43.566Z,2.07
2019-05-07T00:31:13.582Z,1.17
2019-05-07T00:33:43.666Z,2.90
2019-05-07T00:36:42.138Z,3.03
2019-05-07T00:39:33.783Z,2.63
2019-05-07T00:42:28.350Z,1.30
2019-05-07T00:45:20.317Z,1.43
2019-05-07T00:47:45.811Z,1.93
2019-05-07T00:50:22.512Z,1.33
2019-05-07T00:52:52.455Z,1.93
2019-05-07T00:55:22.746Z,2.57
2019-05-07T00:57:52.698Z,2.43
2019-05-07T01:00:22.654Z,1.63
2019-05-07T01:02:52.667Z,1.63
2019-05-07T01:05:23.084Z,3.33
2019-05-07T01:07:53.111Z,1.70
2019-05-07T01:10:23.057Z,3.33
2019-05-07T01:12:53.243Z,2.53
2019-05-07T01:15:31.089Z,2.47
2019-05-07T01:17:54.698Z,3.53
2019-05-07T01:20:24.543Z,3.20
2019-05-07T01:22:54.842Z,4.40
2019-05-07T01:25:24.682Z,2.13
2019-05-07T01:27:54.401Z,1.60
2019-05-07T01:30:24.443Z,1.57
2019-05-07T01:33:02.770Z,1.87
2019-05-07T01:35:50.350Z,1.50
2019-05-07T01:38:20.134Z,2.77
2019-05-07T01:40:51.987Z,1.40
2019-05-07T01:43:22.778Z,1.90
2019-05-07T01:45:53.090Z,1.47
2019-05-07T01:48:23.138Z,2.00
2019-05-07T01:50:53.060Z,1.30
2019-05-07T01:53:22.955Z,1.97
2019-05-07T01:55:52.898Z,1.27
2019-05-07T01:58:22.682Z,2.53
2019-05-07T02:00:53.178Z,1.43
2019-05-07T02:03:29.718Z,1.73
2019-05-07T02:06:07.336Z,1.63
2019-05-07T02:08:58.757Z,1.37
2019-05-07T02:11:33.613Z,2.00
2019-05-07T02:14:03.453Z,1.53
2019-05-07T02:16:33.230Z,2.13
2019-05-07T02:19:03.124Z,2.17
2019-05-07T02:21:33.068Z,2.37
2019-05-07T02:24:03.459Z,1.57
2019-05-07T02:26:33.423Z,2.17
2019-05-07T02:29:03.308Z,2.40
2019-05-07T02:31:33.825Z,2.50
2019-05-07T02:34:03.772Z,1.57
2019-05-07T02:36:34.289Z,2.83
2019-05-07T02:39:17.378Z,2.80
2019-05-07T02:41:47.193Z,2.27
2019-05-07T02:44:17.246Z,1.53
2019-05-07T02:47:03.759Z,1.70
2019-05-07T02:49:53.374Z,1.47
2019-05-07T02:52:27.991Z,1.50
2019-05-07T02:55:13.453Z,1.97
2019-05-07T02:57:43.539Z,1.80
2019-05-07T03:00:16.773Z,1.70
2019-05-07T03:02:45.200Z,2.20
2019-05-07T03:05:15.116Z,2.50
2019-05-07T03:07:45.096Z,2.87
2019-05-07T03:10:15.119Z,3.40
2019-05-07T03:12:45.439Z,2.90
2019-05-07T03:15:15.853Z,3.17
2019-05-07T03:17:45.634Z,3.60
2019-05-07T03:20:22.949Z,3.63
2019-05-07T03:22:53.884Z,3.60
2019-05-07T03:25:28.659Z,3.93
2019-05-07T03:27:58.558Z,4.20
2019-05-07T03:30:47.242Z,4.23
2019-05-07T03:33:26.534Z,4.50
2019-05-07T03:35:57.668Z,5.27
2019-05-07T03:38:27.476Z,5.70
2019-05-07T03:40:57.374Z,4.90
2019-05-07T03:43:27.325Z,4.83
2019-05-07T03:46:03.558Z,5.20
2019-05-07T03:48:34.312Z,8.03
2019-05-07T03:51:04.072Z,5.00
2019-05-07T03:53:34.347Z,4.60
2019-05-07T03:56:04.584Z,4.80
2019-05-07T03:58:34.627Z,4.50
2019-05-07T04:01:04.811Z,4.17
2019-05-07T04:03:34.775Z,4.07
2019-05-07T04:06:04.986Z,4.40
2019-05-07T04:08:34.853Z,3.97
2019-05-07T04:11:04.658Z,3.90
2019-05-07T04:13:34.504Z,4.13
2019-05-07T04:16:04.610Z,3.80
2019-05-07T04:18:34.704Z,3.77
2019-05-07T04:21:04.569Z,3.67
2019-05-07T04:23:34.635Z,3.10
2019-05-07T04:26:38.211Z,3.90
2019-05-07T04:29:13.079Z,3.93
2019-05-07T04:31:43.646Z,3.97
2019-05-07T04:34:19.033Z,3.23
2019-05-07T04:36:53.155Z,3.27
2019-05-07T04:39:23.244Z,3.40
2019-05-07T04:41:53.251Z,3.50
2019-05-07T04:44:23.674Z,3.10
2019-05-07T04:46:53.833Z,3.33
2019-05-07T04:49:24.093Z,4.30
2019-05-07T04:52:04.894Z,2.77
2019-05-07T04:54:34.680Z,3.00
2019-05-07T04:57:06.099Z,3.07
2019-05-07T04:59:35.894Z,2.63
2019-05-07T05:02:13.671Z,2.37
2019-05-07T05:04:44.021Z,2.47
2019-05-07T05:07:14.009Z,2.10
2019-05-07T05:09:43.798Z,1.90
2019-05-07T05:12:13.717Z,2.60
2019-05-07T05:14:44.022Z,2.50
2019-05-07T05:17:13.963Z,2.77
2019-05-07T05:19:44.014Z,2.10
2019-05-07T05:22:32.816Z,2.10
2019-05-07T05:25:12.506Z,2.47
2019-05-07T05:27:42.973Z,2.10
2019-05-07T05:30:15.470Z,2.33
2019-05-07T05:32:45.288Z,3.10
2019-05-07T05:35:15.618Z,2.27
2019-05-07T05:37:45.451Z,2.30
2019-05-07T05:40:16.556Z,1.90
2019-05-07T05:42:52.784Z,1.83
2019-05-07T05:45:35.022Z,1.70
2019-05-07T05:48:08.313Z,1.97
2019-05-07T05:50:47.131Z,1.90
2019-05-07T05:53:24.670Z,1.93
2019-05-07T05:55:55.551Z,2.30
2019-05-07T05:58:46.590Z,2.17
2019-05-07T06:01:26.793Z,2.00
2019-05-07T06:04:03.732Z,3.20
2019-05-07T06:06:48.875Z,2.00
2019-05-07T06:09:43.466Z,1.80
2019-05-07T06:12:38.086Z,1.90
2019-05-07T06:15:13.581Z,1.80
2019-05-07T06:17:53.335Z,3.97
2019-05-07T06:20:52.265Z,3.23
2019-05-07T06:23:32.781Z,2.27
2019-05-07T06:26:05.118Z,4.50
2019-05-07T06:28:33.458Z,3.43
2019-05-07T06:31:03.308Z,2.53
2019-05-07T06:33:33.202Z,2.67
2019-05-07T06:36:05.265Z,2.47
2019-05-07T06:38:42.677Z,2.97
2019-05-07T06:41:34.162Z,2.67
2019-05-07T06:44:08.009Z,2.80
2019-05-07T06:46:38.781Z,4.40
2019-05-07T06:49:08.854Z,3.40
2019-05-07T06:51:38.679Z,3.77
2019-05-07T06:54:08.492Z,3.57
2019-05-07T06:56:38.298Z,3.00
2019-05-07T06:59:16.230Z,3.27
2019-05-07T07:02:02.200Z,3.27
2019-05-07T07:04:44.636Z,3.40
2019-05-07T07:07:30.932Z,3.33
2019-05-07T07:10:15.588Z,3.57
2019-05-07T07:12:45.649Z,3.33
2019-05-07T07:15:15.672Z,3.70
2019-05-07T07:17:45.461Z,3.70
2019-05-07T07:20:15.560Z,3.80
2019-05-07T07:22:45.406Z,3.43
2019-05-07T07:25:15.403Z,3.70
2019-05-07T07:27:45.236Z,4.37
2019-05-07T07:30:25.730Z,5.30
2019-05-07T07:32:55.764Z,4.07
2019-05-07T07:35:25.616Z,3.30
2019-05-07T07:37:55.414Z,3.37
2019-05-07T07:40:44.260Z,3.80
2019-05-07T07:43:14.086Z,3.27
2019-05-07T07:45:43.863Z,4.20
2019-05-07T07:48:13.687Z,3.70
2019-05-07T07:50:43.528Z,4.30
2019-05-07T07:53:13.402Z,4.20
2019-05-07T07:56:02.532Z,4.20
2019-05-07T07:58:54.084Z,4.07
2019-05-07T08:01:39.367Z,4.13
2019-05-07T08:04:09.532Z,3.53
2019-05-07T08:06:42.006Z,4.10
2019-05-07T08:09:12.918Z,4.20
2019-05-07T08:11:43.044Z,4.03
2019-05-07T08:14:13.011Z,3.47
2019-05-07T08:16:43.137Z,3.53
2019-05-07T08:19:21.534Z,3.63
2019-05-07T08:21:44.631Z,3.87
2019-05-07T08:24:14.523Z,3.50
2019-05-07T08:26:44.281Z,3.20
2019-05-07T08:29:14.145Z,2.93
2019-05-07T08:31:59.890Z,2.30
2019-05-07T08:34:47.002Z,2.83
2019-05-07T08:37:16.819Z,3.57
2019-05-07T08:39:46.626Z,3.00
2019-05-07T08:42:16.453Z,2.87
2019-05-07T08:45:05.227Z,2.53
2019-05-07T08:47:42.533Z,2.30
2019-05-07T08:50:12.887Z,2.20
2019-05-07T08:52:42.703Z,2.70
2019-05-07T08:55:12.757Z,2.60
2019-05-07T08:57:45.673Z,3.50
2019-05-07T09:00:15.990Z,2.73
2019-05-07T09:02:45.965Z,2.90
2019-05-07T09:05:15.934Z,2.97
2019-05-07T09:07:45.751Z,2.83
2019-05-07T09:10:15.642Z,3.23
2019-05-07T09:12:45.513Z,3.67
2019-05-07T09:15:15.369Z,3.50
2019-05-07T09:17:45.233Z,3.43
2019-05-07T09:20:15.324Z,2.53
2019-05-07T09:22:45.069Z,2.60
2019-05-07T09:25:15.257Z,2.60
2019-05-07T09:27:46.939Z,2.70
2019-05-07T09:30:35.906Z,2.70
2019-05-07T09:33:25.927Z,3.03
2019-05-07T09:35:56.218Z,3.40
2019-05-07T09:38:26.000Z,2.60
2019-05-07T09:40:57.062Z,4.07
2019-05-07T09:43:27.107Z,2.47
2019-05-07T09:45:56.996Z,2.23
2019-05-07T09:48:26.755Z,2.40
2019-05-07T09:50:56.638Z,1.70
2019-05-07T09:53:26.438Z,2.23
2019-05-07T09:55:56.323Z,1.87
2019-05-07T09:58:35.644Z,2.30
2019-05-07T10:00:57.750Z,1.83
2019-05-07T10:03:27.590Z,2.10
2019-05-07T10:05:57.490Z,2.50
2019-05-07T10:08:27.310Z,1.57
2019-05-07T10:10:57.187Z,2.37
2019-05-07T10:13:34.386Z,1.73
2019-05-07T10:16:07.417Z,1.90
2019-05-07T10:18:36.082Z,2.80
2019-05-07T10:21:05.934Z,1.60
2019-05-07T10:23:35.794Z,1.63
2019-05-07T10:26:05.736Z,1.63
2019-05-07T10:28:35.651Z,1.50
2019-05-07T10:31:05.538Z,1.40
2019-05-07T10:33:35.346Z,1.43
2019-05-07T10:36:05.245Z,2.37
2019-05-07T10:38:35.322Z,1.47
2019-05-07T10:41:05.383Z,1.50
2019-05-07T10:43:35.485Z,1.93
2019-05-07T10:46:24.098Z,1.60
2019-05-07T10:48:58.666Z,2.60
2019-05-07T10:51:28.514Z,3.63
2019-05-07T10:53:58.316Z,2.00
2019-05-07T10:56:28.163Z,1.70
2019-05-07T10:58:57.910Z,3.00
2019-05-07T11:01:34.795Z,1.73
2019-05-07T11:04:04.757Z,3.77
2019-05-07T11:06:34.727Z,1.60
2019-05-07T11:09:07.381Z,1.50
2019-05-07T11:11:37.236Z,1.63
2019-05-07T11:14:07.107Z,2.47
2019-05-07T11:16:46.503Z,1.70
2019-05-07T11:19:18.929Z,3.47
2019-05-07T18:23:41.258Z,2.43
2019-05-07T18:26:16.402Z,2.57
2019-05-07T18:28:42.638Z,2.97
2019-05-07T18:31:15.666Z,2.63
2019-05-07T18:33:48.901Z,2.57
2019-05-07T18:36:18.685Z,2.20
2019-05-07T18:38:48.571Z,2.23
2019-05-07T18:41:18.530Z,4.70
2019-05-07T18:43:48.392Z,2.73
2019-05-07T18:46:18.269Z,2.90
2019-05-07T18:48:48.088Z,14.93
2019-05-07T18:51:17.974Z,37.77
2019-05-07T18:53:47.774Z,24.50
2019-05-07T18:56:17.559Z,40.43
2019-05-07T18:58:47.491Z,18.87
2019-05-07T19:01:19.219Z,9.97
2019-05-07T19:03:49.638Z,6.83
2019-05-07T19:06:19.606Z,3.90
2019-05-07T19:08:49.487Z,3.77
2019-05-07T19:11:19.339Z,2.97
2019-05-07T19:13:49.166Z,2.80
2019-05-07T19:16:19.138Z,2.70
2019-05-07T19:18:49.430Z,3.00
2019-05-07T19:21:19.647Z,2.80
2019-05-07T19:23:49.516Z,2.63
2019-05-07T19:26:19.460Z,2.87
2019-05-07T19:28:49.339Z,3.00
2019-05-07T19:31:19.342Z,3.27
2019-05-07T19:33:49.234Z,3.20
2019-05-07T19:36:19.081Z,5.67
2019-05-07T19:38:48.922Z,5.40
2019-05-07T19:41:18.767Z,4.73
2019-05-07T19:43:48.683Z,5.37
2019-05-07T19:46:18.552Z,6.93
2019-05-07T19:48:48.475Z,5.83
2019-05-07T19:51:18.348Z,6.20
2019-05-07T19:53:48.169Z,6.27
2019-05-07T19:56:21.872Z,6.27
2019-05-07T19:58:52.738Z,4.50
2019-05-07T20:01:33.934Z,4.67
2019-05-07T20:04:03.791Z,5.80
2019-05-07T20:06:33.695Z,4.23
2019-05-07T20:09:11.976Z,4.30
2019-05-07T20:11:42.690Z,4.37
2019-05-07T20:14:12.558Z,4.40
2019-05-07T20:16:42.441Z,4.70
2019-05-07T20:19:12.300Z,4.60
2019-05-07T20:21:42.179Z,3.87
2019-05-07T20:24:12.585Z,5.97
2019-05-07T20:26:43.216Z,4.13
2019-05-07T20:29:13.334Z,3.77
2019-05-07T20:31:43.213Z,3.93
2019-05-07T20:34:13.270Z,3.97
2019-05-07T20:36:42.980Z,4.30
2019-05-07T20:39:13.027Z,4.20
2019-05-07T20:41:43.056Z,3.90
2019-05-07T20:44:13.075Z,3.87
2019-05-07T20:46:42.991Z,3.83
2019-05-07T20:49:13.270Z,4.17
2019-05-07T20:51:43.166Z,4.50
2019-05-07T20:54:35.471Z,4.80
2019-05-07T20:57:14.977Z,4.73
2019-05-07T20:59:44.831Z,5.13
2019-05-07T21:02:14.844Z,4.73
2019-05-07T21:04:44.639Z,4.60
2019-05-07T21:07:14.473Z,4.87
2019-05-07T21:09:44.239Z,4.93
2019-05-07T21:12:14.073Z,4.60
2019-05-07T21:14:43.923Z,4.73
2019-05-07T21:17:13.785Z,4.83
2019-05-07T21:19:43.663Z,5.30
2019-05-07T21:22:13.522Z,5.27
2019-05-07T21:24:46.608Z,5.23
2019-05-07T21:27:14.820Z,5.47
2019-05-07T21:29:44.677Z,5.50
2019-05-07T21:32:14.458Z,4.97
2019-05-07T21:34:44.269Z,7.70
2019-05-07T21:37:14.091Z,8.37
2019-05-07T21:39:43.991Z,5.83
2019-05-07T21:42:14.275Z,4.90
2019-05-07T21:44:44.233Z,4.60
2019-05-07T21:47:14.154Z,4.87
2019-05-07T21:49:44.023Z,4.83
2019-05-07T21:52:13.820Z,5.13
2019-05-07T21:54:58.944Z,4.93
2019-05-07T21:57:47.709Z,5.07
2019-05-07T22:00:41.586Z,4.70
2019-05-07T22:03:13.862Z,4.67
2019-05-07T22:05:44.287Z,4.90
2019-05-07T22:08:14.499Z,4.73
2019-05-07T22:10:44.340Z,4.83
2019-05-07T22:13:14.127Z,4.90
2019-05-07T22:15:43.857Z,4.43
2019-05-07T22:18:13.699Z,4.80
2019-05-07T22:20:43.479Z,5.00
2019-05-07T22:23:13.903Z,5.13
2019-05-07T22:25:43.707Z,5.00
2019-05-07T22:28:13.593Z,5.33
2019-05-07T22:30:52.773Z,5.23
2019-05-07T22:33:31.486Z,5.00
2019-05-07T22:36:01.830Z,5.03
2019-05-07T22:38:32.391Z,5.67
2019-05-07T22:41:02.267Z,5.10
2019-05-07T22:43:32.095Z,4.90
2019-05-07T22:46:01.886Z,5.47
2019-05-07T22:48:32.463Z,5.00
2019-05-07T22:51:02.783Z,5.43
2019-05-07T22:53:32.917Z,5.00
2019-05-07T22:56:03.252Z,5.10
2019-05-07T22:58:41.886Z,5.00
2019-05-07T23:01:13.097Z,5.43
2019-05-07T23:03:43.151Z,5.00
2019-05-07T23:06:13.075Z,4.90
2019-05-07T23:08:42.854Z,5.20
2019-05-07T23:11:12.676Z,4.90
2019-05-07T23:13:42.846Z,4.43
2019-05-07T23:16:12.850Z,5.60
2019-05-07T23:18:43.084Z,4.90
2019-05-07T23:21:13.026Z,5.17
2019-05-07T23:23:42.892Z,5.90
2019-05-07T23:26:14.743Z,5.90
2019-05-07T23:28:44.267Z,6.47
2019-05-07T23:31:14.074Z,5.80
2019-05-07T23:33:44.043Z,6.57
2019-05-07T23:36:13.890Z,6.30
2019-05-07T23:38:43.751Z,5.70
2019-05-07T23:41:42.075Z,5.40
2019-05-07T23:44:16.968Z,5.53
2019-05-07T23:46:47.025Z,5.23
2019-05-07T23:49:16.826Z,5.73
2019-05-07T23:51:46.689Z,5.17
2019-05-07T23:54:16.503Z,5.10
2019-05-07T23:56:46.373Z,5.27
2019-05-07T23:59:16.178Z,4.77
